Time;durP1;ratioP1;P1;durP2;ratioP2;P2;SDS_P1;SDS_P2;PMS_P1;PMS_P2;Temp;Humidity;BMP_temperature;BMP_pressure;BME280_temperature;BME280_humidity;BME280_pressure;Samples;Min_cycle;Max_cycle;Signal;HPM_P1;HPM_P2
2022/07/27 00:01:14;;;;;;;2.42;1.60;;;;;;;10.95;100.00;100901.38;4976436;28;20208;-78
2022/07/27 00:03:42;;;;;;;3.80;2.40;;;;;;;10.93;100.00;100899.63;4990834;28;20066;-78
2022/07/27 00:06:09;;;;;;;4.05;1.60;;;;;;;10.87;100.00;100890.06;4949243;28;20397;-78
2022/07/27 00:08:36;;;;;;;3.95;2.00;;;;;;;10.88;100.00;100894.44;4962003;28;20044;-79
2022/07/27 00:11:04;;;;;;;5.35;2.65;;;;;;;10.85;100.00;100888.34;4954580;28;20046;-78
2022/07/27 00:13:31;;;;;;;3.13;1.75;;;;;;;10.79;100.00;100896.38;4961023;28;20057;-78
2022/07/27 00:15:57;;;;;;;3.95;1.90;;;;;;;10.77;100.00;100903.47;4959120;28;20050;-79
2022/07/27 00:18:24;;;;;;;3.58;1.90;;;;;;;10.73;100.00;100896.50;4960921;28;20053;-78
2022/07/27 00:20:51;;;;;;;3.35;1.70;;;;;;;10.69;100.00;100901.84;4966347;28;20048;-79
2022/07/27 00:23:18;;;;;;;4.13;2.40;;;;;;;10.66;100.00;100893.94;4966777;28;20042;-79
2022/07/27 00:25:44;;;;;;;3.08;1.90;;;;;;;10.62;100.00;100894.91;4957165;28;20054;-79
2022/07/27 00:28:11;;;;;;;2.42;1.70;;;;;;;10.57;100.00;100898.50;4952015;28;20034;-78
2022/07/27 00:30:38;;;;;;;3.90;2.13;;;;;;;10.54;100.00;100888.88;4989086;28;20041;-79
2022/07/27 00:33:05;;;;;;;4.63;2.72;;;;;;;10.50;100.00;100896.88;4958910;28;20530;-78
2022/07/27 00:35:32;;;;;;;4.57;2.03;;;;;;;10.43;100.00;100897.00;4976778;28;20505;-78
2022/07/27 00:38:01;;;;;;;5.88;2.33;;;;;;;10.39;100.00;100899.69;4992019;28;20042;-78
2022/07/27 00:40:27;;;;;;;5.43;2.15;;;;;;;10.34;100.00;100893.59;4986647;28;20074;-78
2022/07/27 00:42:54;;;;;;;4.70;2.30;;;;;;;10.30;100.00;100895.44;4984241;28;20041;-78
2022/07/27 00:45:21;;;;;;;3.20;1.90;;;;;;;10.24;100.00;100894.63;4970602;28;20038;-77
2022/07/27 00:47:47;;;;;;;5.65;2.85;;;;;;;10.23;100.00;100898.19;4958700;28;20038;-77
2022/07/27 00:50:20;;;;;;;2.08;1.63;;;;;;;10.20;100.00;100907.00;5009353;28;20128;-77
2022/07/27 00:52:47;;;;;;;5.93;2.33;;;;;;;10.22;100.00;100901.69;4997252;28;20038;-78
2022/07/27 00:55:14;;;;;;;2.85;1.90;;;;;;;10.13;100.00;100900.94;5003265;28;20125;-78
2022/07/27 00:57:41;;;;;;;4.03;2.30;;;;;;;10.05;100.00;100904.56;4982055;28;20045;-78
2022/07/27 01:00:26;;;;;;;4.10;2.30;;;;;;;10.00;100.00;100909.91;4984552;28;20049;-78
2022/07/27 01:02:53;;;;;;;4.53;2.05;;;;;;;9.97;100.00;100904.69;4989748;28;20343;-77
2022/07/27 01:05:23;;;;;;;4.20;2.20;;;;;;;9.94;100.00;100909.16;4990154;28;20050;-78
2022/07/27 01:08:03;;;;;;;4.13;1.85;;;;;;;9.91;100.00;100910.03;4993542;28;20055;-78
2022/07/27 01:10:31;;;;;;;3.72;2.10;;;;;;;9.87;100.00;100916.25;4980974;28;21195;-77
2022/07/27 01:12:59;;;;;;;3.38;1.70;;;;;;;9.81;100.00;100916.34;4975824;28;20042;-78
2022/07/27 01:15:26;;;;;;;3.45;2.20;;;;;;;9.79;100.00;100915.50;4982138;28;20049;-78
2022/07/27 01:17:52;;;;;;;3.42;2.20;;;;;;;9.80;100.00;100914.59;4981368;28;20053;-78
2022/07/27 01:20:19;;;;;;;3.90;2.33;;;;;;;9.80;100.00;100917.22;4980150;28;20491;-78
2022/07/27 01:22:46;;;;;;;4.68;2.22;;;;;;;9.76;100.00;100915.53;5011118;28;20038;-78
2022/07/27 01:25:13;;;;;;;2.90;1.75;;;;;;;9.70;100.00;100920.88;4998863;28;20040;-78
2022/07/27 01:27:39;;;;;;;3.33;2.10;;;;;;;9.71;100.00;100917.34;5006091;28;20057;-77
2022/07/27 01:30:25;;;;;;;2.30;1.67;;;;;;;9.64;100.00;100913.91;4971210;28;20047;-78
2022/07/27 01:32:59;;;;;;;4.70;2.17;;;;;;;9.57;100.00;100914.88;4966343;28;20499;-78
2022/07/27 01:35:26;;;;;;;4.95;2.38;;;;;;;9.54;100.00;100920.19;4994198;28;20042;-77
2022/07/27 01:37:53;;;;;;;3.45;1.83;;;;;;;9.53;100.00;100923.75;4996155;28;20038;-78
2022/07/27 01:40:20;;;;;;;4.15;2.10;;;;;;;9.49;100.00;100916.72;4994899;28;20054;-78
2022/07/27 01:42:47;;;;;;;5.50;1.77;;;;;;;9.44;100.00;100916.81;4993725;28;20038;-78
2022/07/27 01:45:14;;;;;;;5.45;2.50;;;;;;;9.39;100.00;100915.97;4971964;28;20042;-78
2022/07/27 01:47:41;;;;;;;3.83;2.13;;;;;;;9.37;100.00;100920.41;4990026;28;20042;-77
2022/07/27 01:50:09;;;;;;;2.72;1.83;;;;;;;9.31;100.00;100928.38;4970631;28;20038;-78
2022/07/27 01:52:38;;;;;;;4.25;2.30;;;;;;;9.23;100.00;100922.31;4953420;28;20058;-78
2022/07/27 01:55:09;;;;;;;3.85;2.20;;;;;;;9.20;100.00;100919.72;4991472;28;20154;-78
2022/07/27 01:57:36;;;;;;;3.28;2.10;;;;;;;9.18;100.00;100924.13;4975585;28;20141;-78
2022/07/27 02:00:09;;;;;;;3.78;1.88;;;;;;;9.13;100.00;100918.91;4959922;28;20034;-79
2022/07/27 02:02:37;;;;;;;3.70;1.98;;;;;;;9.14;100.00;100919.78;4973684;28;20129;-78
2022/07/27 02:05:04;;;;;;;5.10;2.22;;;;;;;9.09;100.00;100909.28;4955396;28;20050;-79
2022/07/27 02:07:31;;;;;;;4.28;2.33;;;;;;;9.10;100.00;100910.16;4959995;28;20133;-78
2022/07/27 02:09:57;;;;;;;3.92;2.05;;;;;;;9.07;100.00;100916.31;4963506;28;20053;-78
2022/07/27 02:12:36;;;;;;;5.20;2.28;;;;;;;9.02;100.00;100913.75;4957641;28;20109;-79
2022/07/27 02:15:12;;;;;;;3.90;2.03;;;;;;;8.92;100.00;100912.09;4973350;28;20404;-79
2022/07/27 02:17:42;;;;;;;3.47;2.10;;;;;;;8.90;100.00;100916.47;4974491;28;20062;-78
2022/07/27 02:20:09;;;;;;;3.05;2.47;;;;;;;8.87;100.00;100920.91;4961263;28;20043;-79
2022/07/27 02:22:36;;;;;;;3.50;2.25;;;;;;;8.83;100.00;100912.19;4976468;28;20118;-79
2022/07/27 02:25:04;;;;;;;4.25;2.20;;;;;;;8.87;100.00;100913.88;4959587;28;20039;-78
2022/07/27 02:27:31;;;;;;;4.20;2.13;;;;;;;8.89;100.00;100911.22;4957951;28;20037;-79
2022/07/27 02:29:58;;;;;;;7.25;2.80;;;;;;;8.83;100.00;100912.19;4974185;28;20053;-79
2022/07/27 02:32:25;;;;;;;4.57;1.70;;;;;;;8.76;100.00;100917.53;4956241;28;20046;-79
2022/07/27 02:34:52;;;;;;;4.13;2.60;;;;;;;8.70;100.00;100921.94;4972504;23;20570;-77
2022/07/27 02:37:18;;;;;;;3.95;2.10;;;;;;;8.70;100.00;100921.06;4973818;28;20056;-78
2022/07/27 02:39:45;;;;;;;7.22;2.15;;;;;;;8.68;100.00;100921.09;4970700;28;20037;-77
2022/07/27 02:42:12;;;;;;;3.17;2.10;;;;;;;8.67;100.00;100919.34;4984444;28;20030;-78
2022/07/27 02:44:39;;;;;;;5.10;2.25;;;;;;;8.66;100.00;100916.69;4952845;28;20094;-77
2022/07/27 02:47:05;;;;;;;3.70;2.47;;;;;;;8.65;100.00;100921.09;4976134;28;20133;-77
2022/07/27 02:49:32;;;;;;;3.17;2.13;;;;;;;8.62;100.00;100920.25;4962145;28;20038;-79
2022/07/27 02:51:59;;;;;;;3.67;2.13;;;;;;;8.63;100.00;100914.09;4974684;28;20044;-78
2022/07/27 02:54:26;;;;;;;5.53;2.73;;;;;;;8.61;100.00;100916.75;4975123;28;20042;-77
2022/07/27 02:56:54;;;;;;;4.28;2.50;;;;;;;8.57;100.00;100928.19;4953265;28;20054;-77
2022/07/27 02:59:21;;;;;;;3.67;2.28;;;;;;;8.60;100.00;100924.69;4970875;28;20511;-78
2022/07/27 03:01:48;;;;;;;4.63;2.43;;;;;;;8.58;100.00;100916.78;4976269;28;20038;-78
2022/07/27 03:04:15;;;;;;;4.10;2.20;;;;;;;8.56;100.00;100915.91;4998125;28;20581;-79
2022/07/27 03:06:42;;;;;;;2.75;2.20;;;;;;;8.54;100.00;100922.09;4992631;28;20038;-78
2022/07/27 03:09:09;;;;;;;3.20;2.45;;;;;;;8.53;100.00;100915.06;4983706;28;20050;-78
2022/07/27 03:11:36;;;;;;;4.60;2.20;;;;;;;8.54;100.00;100924.72;4972614;28;20057;-79
2022/07/27 03:14:03;;;;;;;6.00;2.87;;;;;;;8.51;100.00;100915.09;4977210;28;20048;-78
2022/07/27 03:16:30;;;;;;;4.80;2.10;;;;;;;8.55;100.00;100916.81;4979808;28;20042;-77
2022/07/27 03:18:56;;;;;;;4.45;2.30;;;;;;;8.55;100.00;100924.69;4987179;28;20038;-79
2022/07/27 03:21:23;;;;;;;3.90;1.80;;;;;;;8.55;100.00;100929.97;4977721;28;20049;-78
2022/07/27 03:23:50;;;;;;;4.72;2.28;;;;;;;8.59;100.00;100931.72;4991983;28;20042;-77
2022/07/27 03:26:18;;;;;;;3.50;1.95;;;;;;;8.64;100.00;100929.03;4974835;28;20038;-78
2022/07/27 03:28:44;;;;;;;4.93;2.92;;;;;;;8.67;100.00;100924.63;4940400;28;20046;-76
2022/07/27 03:31:11;;;;;;;5.53;2.50;;;;;;;8.73;100.00;100918.41;4986595;28;20038;-79
2022/07/27 03:33:38;;;;;;;8.85;3.00;;;;;;;8.73;100.00;100921.03;4979064;28;20103;-79
2022/07/27 03:36:06;;;;;;;5.00;2.30;;;;;;;8.76;100.00;100917.53;5003906;28;20052;-78
2022/07/27 03:38:33;;;;;;;5.93;2.40;;;;;;;8.84;100.00;100918.31;5021338;28;20458;-77
2022/07/27 03:40:59;;;;;;;5.07;2.38;;;;;;;8.88;100.00;100917.41;5015687;28;20430;-78
2022/07/27 03:43:26;;;;;;;4.35;2.78;;;;;;;8.94;100.00;100934.03;5026701;28;20041;-78
2022/07/27 03:45:52;;;;;;;4.65;2.20;;;;;;;8.99;100.00;100912.88;4991872;28;20041;-77
2022/07/27 03:48:19;;;;;;;3.78;2.40;;;;;;;9.09;100.00;100922.47;5022433;28;20037;-79
2022/07/27 03:50:46;;;;;;;5.30;2.42;;;;;;;9.18;100.00;100917.09;5003824;28;20045;-79
2022/07/27 03:53:13;;;;;;;3.60;2.53;;;;;;;9.25;100.00;100910.88;5015480;28;20076;-77
2022/07/27 03:55:40;;;;;;;6.30;2.55;;;;;;;9.36;100.00;100912.50;4992854;28;20056;-77
2022/07/27 03:58:07;;;;;;;3.38;2.55;;;;;;;9.42;100.00;100917.72;5010622;28;20037;-77
2022/07/27 04:00:33;;;;;;;5.82;2.60;;;;;;;9.47;100.00;100914.13;5012539;28;20037;-77
2022/07/27 04:03:00;;;;;;;4.28;2.83;;;;;;;9.53;100.00;100916.69;5009763;28;20049;-78
2022/07/27 04:05:27;;;;;;;3.97;2.55;;;;;;;9.61;100.00;100913.97;5005774;28;22185;-79
2022/07/27 04:07:55;;;;;;;4.05;2.38;;;;;;;9.70;100.00;100911.22;5008371;28;20049;-78
2022/07/27 04:10:23;;;;;;;2.60;2.20;;;;;;;9.74;100.00;100912.03;5018548;28;20038;-77
2022/07/27 04:12:54;;;;;;;7.43;2.78;;;;;;;9.81;100.00;100925.13;5006723;28;20041;-79
2022/07/27 04:15:22;;;;;;;11.18;2.67;;;;;;;9.92;100.00;100918.81;4994452;28;20513;-77
2022/07/27 04:17:49;;;;;;;6.20;3.00;;;;;;;9.97;100.00;100917.00;5029051;28;20073;-78
2022/07/27 04:20:22;;;;;;;6.68;3.17;;;;;;;10.06;100.00;100917.75;4991700;28;20050;-76
2022/07/27 04:22:49;;;;;;;6.35;2.55;;;;;;;10.12;100.00;100914.16;4991041;28;20042;-78
2022/07/27 04:25:15;;;;;;;5.38;2.20;;;;;;;10.22;100.00;100913.16;5008704;28;20636;-79
2022/07/27 04:27:42;;;;;;;4.75;2.42;;;;;;;10.30;100.00;100921.84;5009419;28;20071;-77
2022/07/27 04:30:09;;;;;;;5.22;2.53;;;;;;;10.40;100.00;100922.56;5000405;28;20034;-78
2022/07/27 04:32:36;;;;;;;3.28;2.15;;;;;;;10.52;100.00;100925.03;4993790;28;20045;-77
2022/07/27 04:35:03;;;;;;;6.45;2.30;;;;;;;10.66;100.00;100928.28;4993744;28;20034;-77
2022/07/27 04:37:31;;;;;;;4.72;2.58;;;;;;;10.82;100.00;100925.41;5005611;28;20049;-77
2022/07/27 04:39:58;;;;;;;3.55;2.30;;;;;;;10.93;100.00;100918.13;5027247;28;20045;-78
2022/07/27 04:42:24;;;;;;;5.53;2.83;;;;;;;11.03;100.00;100926.81;4992559;28;20133;-77
2022/07/27 04:44:51;;;;;;;5.07;2.95;;;;;;;11.14;100.00;100931.00;5008449;28;20037;-77
2022/07/27 04:47:17;;;;;;;3.92;2.55;;;;;;;11.27;100.00;100935.16;5008568;28;20038;-77
2022/07/27 04:49:44;;;;;;;4.40;2.13;;;;;;;11.47;100.00;100931.25;4981480;28;20581;-78
2022/07/27 04:52:14;;;;;;;4.07;1.80;;;;;;;11.46;100.00;100927.72;4988590;28;20438;-77
2022/07/27 04:54:40;;;;;;;2.70;2.00;;;;;;;11.55;100.00;100926.66;5009337;28;20057;-77
2022/07/27 04:57:07;;;;;;;5.78;2.22;;;;;;;11.76;100.00;100925.34;4994551;28;20038;-77
2022/07/27 04:59:34;;;;;;;4.68;1.70;;;;;;;11.82;100.00;100931.41;5008096;28;20516;-78
2022/07/27 05:02:01;;;;;;;4.85;2.03;;;;;;;11.99;100.00;100928.41;5001387;28;20530;-79
2022/07/27 05:04:27;;;;;;;4.70;1.83;;;;;;;12.18;100.00;100926.22;4969628;28;20412;-79
2022/07/27 05:06:56;;;;;;;3.85;1.60;;;;;;;12.26;100.00;100913.66;4993190;28;20121;-79
2022/07/27 05:09:23;;;;;;;4.35;1.73;;;;;;;12.41;100.00;100931.00;4988517;28;20041;-79
2022/07/27 05:11:55;;;;;;;4.82;1.90;;;;;;;12.54;100.00;100931.56;5013327;28;20041;-80
2022/07/27 05:14:22;;;;;;;5.40;1.70;;;;;;;12.61;100.00;100925.19;4995152;28;20088;-79
2022/07/27 05:16:49;;;;;;;3.65;1.63;;;;;;;12.67;100.00;100930.34;4984674;28;20049;-79
2022/07/27 05:19:16;;;;;;;3.92;1.80;;;;;;;12.79;100.00;100930.06;5001449;28;20052;-77
2022/07/27 05:21:43;;;;;;;5.35;1.88;;;;;;;12.79;100.00;100927.41;5000027;28;20042;-78
2022/07/27 05:24:09;;;;;;;5.75;2.05;;;;;;;12.86;100.00;100922.78;4986541;28;20038;-78
2022/07/27 05:26:36;;;;;;;3.60;1.40;;;;;;;12.82;100.00;100922.03;4972480;28;20499;-78
2022/07/27 05:29:03;;;;;;;3.80;1.60;;;;;;;12.81;100.00;100930.88;4988415;28;20038;-79
2022/07/27 05:31:30;;;;;;;1.75;1.25;;;;;;;12.83;100.00;100941.44;4991192;28;20495;-76
2022/07/27 05:33:56;;;;;;;4.80;2.03;;;;;;;12.91;100.00;100935.03;4989499;28;20049;-77
2022/07/27 05:36:24;;;;;;;4.00;1.65;;;;;;;13.00;100.00;100933.06;5002206;28;20038;-78
2022/07/27 05:38:51;;;;;;;5.75;2.08;;;;;;;13.11;100.00;100936.28;4986133;28;20045;-77
2022/07/27 05:41:25;;;;;;;3.80;1.65;;;;;;;13.12;100.00;100932.75;4986337;28;20623;-78
2022/07/27 05:43:53;;;;;;;;;;;;;;;13.14;100.00;100936.22;4989993;28;20077;-78
2022/07/27 05:46:20;;;;;;;5.22;2.00;;;;;;;13.22;100.00;100936.94;4995525;28;20020;-77
2022/07/27 05:48:47;;;;;;;5.55;1.83;;;;;;;13.43;100.00;100936.31;4993506;28;20067;-78
2022/07/27 05:51:13;;;;;;;6.75;2.40;;;;;;;13.61;100.00;100934.94;4983815;28;20510;-77
2022/07/27 05:53:40;;;;;;;3.45;1.80;;;;;;;13.88;98.51;100949.22;5004336;28;20577;-77
2022/07/27 05:56:07;;;;;;;4.30;2.70;;;;;;;13.93;98.10;100931.34;4995776;28;20041;-77
2022/07/27 05:58:33;;;;;;;3.05;1.50;;;;;;;14.11;97.00;100939.66;5022444;28;20064;-78
2022/07/27 06:01:00;;;;;;;5.03;1.92;;;;;;;14.36;93.71;100938.00;4998694;28;20052;-77
2022/07/27 06:03:27;;;;;;;7.00;2.10;;;;;;;14.56;91.91;100938.28;5000801;28;20393;-77
2022/07/27 06:07:57;;;;;;;3.72;1.65;;;;;;;15.04;90.79;100944.66;5004607;28;20426;-77
2022/07/27 06:08:40;;;;;;;3.08;1.50;;;;;;;15.42;86.13;100941.53;5001406;28;20309;-77
2022/07/27 06:11:07;;;;;;;3.15;1.52;;;;;;;15.40;85.07;100945.16;4984551;28;20092;-76
2022/07/27 06:13:35;;;;;;;3.22;1.90;;;;;;;15.44;85.74;100944.13;4973873;28;20045;-76
2022/07/27 06:16:02;;;;;;;4.50;1.60;;;;;;;15.48;86.53;100957.28;5019327;28;20034;-79
2022/07/27 06:18:30;;;;;;;6.60;1.92;;;;;;;15.62;85.75;100959.47;4986138;28;20103;-79
2022/07/27 06:21:23;;;;;;;3.85;1.52;;;;;;;15.62;83.11;100958.59;4995474;28;20497;-78
2022/07/27 06:23:57;;;;;;;3.35;1.30;;;;;;;15.69;84.95;100962.78;5004149;28;20042;-78
2022/07/27 06:26:23;;;;;;;12.38;2.00;;;;;;;15.66;82.21;100961.09;4997113;28;20042;-77
2022/07/27 06:28:51;;;;;;;4.30;1.50;;;;;;;15.56;83.93;100961.47;5009384;28;20045;-79
2022/07/27 06:31:18;;;;;;;10.68;1.92;;;;;;;15.55;84.19;100967.69;5008581;28;20038;-78
2022/07/27 06:33:45;;;;;;;5.72;2.10;;;;;;;15.41;86.12;100969.06;4990654;28;20201;-76
2022/07/27 06:36:18;;;;;;;4.25;1.40;;;;;;;15.58;87.05;100972.94;5003098;28;20037;-77
2022/07/27 06:38:47;;;;;;;2.95;1.67;;;;;;;15.55;84.70;100978.34;4982216;28;20046;-78
2022/07/27 06:41:15;;;;;;;7.60;2.38;;;;;;;15.71;84.55;100980.44;5024360;28;20128;-79
2022/07/27 06:43:43;;;;;;;5.55;1.45;;;;;;;15.74;84.46;100983.00;5013481;28;20443;-78
2022/07/27 06:46:13;;;;;;;5.20;1.52;;;;;;;15.97;84.32;100986.59;5029131;28;20033;-78
2022/07/27 06:48:41;;;;;;;5.63;2.17;;;;;;;16.20;83.37;100978.59;4992859;28;20117;-79
2022/07/27 06:51:08;;;;;;;5.78;1.70;;;;;;;16.39;79.51;100983.19;5008480;28;20045;-76
2022/07/27 06:53:35;;;;;;;3.72;1.50;;;;;;;16.37;80.33;100983.25;5011022;28;20505;-79
2022/07/27 06:56:03;;;;;;;4.10;1.55;;;;;;;16.52;80.61;100974.66;4993064;28;20038;-78
2022/07/27 06:58:31;;;;;;;5.65;1.58;;;;;;;16.61;77.34;100976.97;4993996;28;20046;-77
2022/07/27 07:01:00;;;;;;;5.95;1.92;;;;;;;16.59;79.11;100989.50;5001236;28;20042;-77
2022/07/27 07:03:28;;;;;;;6.97;1.52;;;;;;;16.70;77.56;100985.56;4993877;28;20121;-78
2022/07/27 07:05:55;;;;;;;4.97;1.23;;;;;;;16.77;72.85;100984.38;4991025;28;20041;-78
2022/07/27 07:08:22;;;;;;;5.93;1.73;;;;;;;17.05;75.50;100968.06;5016341;28;20068;-79
2022/07/27 07:10:49;;;;;;;4.35;1.52;;;;;;;17.18;73.24;100988.00;5006427;28;20042;-77
2022/07/27 07:13:16;;;;;;;5.68;1.63;;;;;;;17.19;72.81;100967.50;4994034;28;20053;-77
2022/07/27 07:15:42;;;;;;;3.40;1.27;;;;;;;17.06;69.88;100973.34;4987090;28;20042;-77
2022/07/27 07:18:10;;;;;;;7.28;1.77;;;;;;;16.97;70.44;100976.41;5005797;28;20057;-77
2022/07/27 07:20:37;;;;;;;2.72;1.30;;;;;;;16.84;71.11;100973.41;4984624;28;20046;-77
2022/07/27 07:23:04;;;;;;;3.47;1.63;;;;;;;16.81;71.54;100984.19;5011468;28;20041;-79
2022/07/27 07:25:31;;;;;;;4.25;1.17;;;;;;;16.54;70.57;100980.81;5007879;28;20038;-77
2022/07/27 07:27:58;;;;;;;5.05;1.50;;;;;;;16.57;68.79;100971.81;5009549;28;20042;-78
2022/07/27 07:30:25;;;;;;;6.40;1.65;;;;;;;16.44;71.57;100970.56;5008568;28;20133;-77
2022/07/27 07:32:52;;;;;;;3.70;1.38;;;;;;;16.70;72.42;100973.09;4994405;28;20231;-77
2022/07/27 07:35:19;;;;;;;2.20;1.30;;;;;;;16.96;70.07;100973.81;5007598;28;20529;-78
2022/07/27 07:37:46;;;;;;;4.30;1.60;;;;;;;17.02;67.63;100968.22;4993418;28;20033;-79
2022/07/27 07:40:16;;;;;;;6.32;1.45;;;;;;;16.85;65.68;100969.78;5010739;28;20076;-77
2022/07/27 07:43:03;;;;;;;3.58;1.38;;;;;;;16.96;65.52;100979.16;5006011;28;20108;-78
2022/07/27 07:45:33;;;;;;;2.88;1.25;;;;;;;17.21;68.21;100965.63;4988795;28;20487;-76
2022/07/27 07:48:00;;;;;;;8.45;2.03;;;;;;;17.58;67.84;100962.22;5009626;28;20045;-79
2022/07/27 07:50:26;;;;;;;6.35;1.52;;;;;;;18.04;64.78;100968.16;4991300;28;20046;-78
2022/07/27 07:52:53;;;;;;;2.20;1.20;;;;;;;18.37;64.72;100969.25;4972096;28;20041;-78
2022/07/27 07:55:22;;;;;;;4.32;1.58;;;;;;;18.55;63.80;100971.03;4994814;28;20928;-78
2022/07/27 07:57:49;;;;;;;3.42;1.40;;;;;;;18.88;59.41;100959.66;5009312;28;20704;-78
2022/07/27 08:00:17;;;;;;;2.85;1.17;;;;;;;19.27;58.80;100959.44;5010707;28;20431;-79
2022/07/27 08:02:46;;;;;;;4.90;1.40;;;;;;;19.33;56.38;100960.91;4995555;28;22181;-78
2022/07/27 08:05:13;;;;;;;4.63;1.20;;;;;;;19.68;54.84;100962.66;5013546;28;20087;-78
2022/07/27 08:07:40;;;;;;;1.73;1.20;;;;;;;19.55;52.76;100958.84;4994400;28;20120;-78
2022/07/27 08:10:08;;;;;;;4.47;1.33;;;;;;;19.18;54.67;100959.91;5013425;28;20046;-77
2022/07/27 08:12:36;;;;;;;2.55;1.13;;;;;;;18.93;53.14;100965.66;5009305;28;20046;-77
2022/07/27 08:15:04;;;;;;;3.90;1.20;;;;;;;18.68;54.38;100963.31;4995292;28;20503;-77
2022/07/27 08:17:30;;;;;;;3.47;1.30;;;;;;;18.37;53.87;100979.97;5008030;28;20049;-77
2022/07/27 08:19:57;;;;;;;4.43;1.48;;;;;;;18.21;55.42;100978.94;5012248;28;20038;-77
2022/07/27 08:22:24;;;;;;;2.78;1.25;;;;;;;18.06;53.54;100977.84;5025921;28;20552;-79
2022/07/27 08:24:50;;;;;;;4.18;1.42;;;;;;;17.92;54.94;100981.19;5011037;28;20443;-76
2022/07/27 08:27:17;;;;;;;3.28;1.40;;;;;;;17.92;55.64;100991.00;4992499;28;20077;-79
2022/07/27 08:29:44;;;;;;;2.55;1.20;;;;;;;17.95;55.90;100980.16;5023801;28;20454;-79
2022/07/27 08:32:17;;;;;;;4.30;1.38;;;;;;;18.54;53.32;100980.00;5030859;28;20552;-77
2022/07/27 08:34:44;;;;;;;2.40;1.55;;;;;;;18.83;50.43;100977.72;5010494;28;20042;-78
2022/07/27 08:37:12;;;;;;;8.05;1.75;;;;;;;18.78;49.99;100982.47;5014303;28;20057;-79
2022/07/27 08:39:41;;;;;;;3.25;1.30;;;;;;;19.00;50.94;100971.53;5007990;28;20038;-78
2022/07/27 08:42:28;;;;;;;4.28;1.30;;;;;;;19.43;50.26;100986.31;5002299;28;20406;-79
2022/07/27 08:44:56;;;;;;;4.63;1.45;;;;;;;19.95;49.58;100980.88;5023885;28;20057;-77
2022/07/27 08:47:23;;;;;;;2.33;1.10;;;;;;;19.99;47.38;100979.75;5061524;23;20100;-79
2022/07/27 08:49:50;;;;;;;2.25;1.10;;;;;;;19.89;48.08;100978.53;4992559;28;20052;-79
2022/07/27 08:52:18;;;;;;;1.63;1.00;;;;;;;19.58;48.85;100981.97;4992273;28;20945;-79
2022/07/27 08:54:45;;;;;;;2.88;0.98;;;;;;;19.36;48.43;100980.41;4980205;28;20117;-79
2022/07/27 08:57:12;;;;;;;3.17;1.20;;;;;;;19.05;48.25;100993.59;4969096;28;20110;-78
2022/07/27 08:59:39;;;;;;;2.47;1.00;;;;;;;18.70;51.50;100998.91;4968021;28;20042;-78
2022/07/27 09:02:12;;;;;;;1.25;0.90;;;;;;;18.35;51.09;101000.56;4964733;28;20122;-78
2022/07/27 09:04:40;;;;;;;3.60;1.27;;;;;;;18.27;54.57;101000.06;4966150;28;20046;-78
2022/07/27 09:07:10;;;;;;;4.35;1.50;;;;;;;18.52;52.24;101003.31;4968579;28;21772;-79
2022/07/27 11:07:11;;;;;;;2.67;1.77;;;;;;;19.93;46.86;100997.06;5062857;28;20036;-95
2022/07/27 11:10:00;;;;;;;2.97;1.23;;;;;;;19.76;50.55;101002.47;4946544;28;20054;-79
2022/07/27 11:12:30;;;;;;;3.80;1.50;;;;;;;19.87;49.24;100997.38;4950656;28;20039;-79
2022/07/27 11:14:57;;;;;;;4.15;1.60;;;;;;;19.82;47.95;100991.38;4946313;28;20067;-80
2022/07/27 11:17:26;;;;;;;5.03;1.73;;;;;;;20.16;48.99;100989.56;4964867;28;20055;-79
2022/07/27 11:20:13;;;;;;;2.67;1.13;;;;;;;20.29;45.65;100995.13;4944771;28;20118;-79
2022/07/27 11:22:41;;;;;;;1.55;1.10;;;;;;;20.17;46.59;100992.16;4968837;28;20054;-78
2022/07/27 11:25:28;;;;;;;4.97;1.95;;;;;;;20.11;49.76;100991.66;4952403;28;20055;-79
2022/07/27 11:27:55;;;;;;;3.08;1.40;;;;;;;19.96;48.44;100987.97;4919225;28;20066;-78
2022/07/27 11:30:27;;;;;;;2.58;1.10;;;;;;;20.04;49.47;100996.47;4955103;28;20062;-79
2022/07/27 11:32:54;;;;;;;4.55;1.52;;;;;;;19.89;48.37;100990.13;4946470;28;20063;-78
2022/07/27 11:35:21;;;;;;;3.78;1.63;;;;;;;19.81;50.01;100988.78;4940429;28;20039;-78
2022/07/27 11:37:59;;;;;;;2.05;1.30;;;;;;;19.74;47.82;100977.53;4954681;28;20040;-78
2022/07/27 11:40:26;;;;;;;4.18;1.70;;;;;;;19.67;48.04;100987.72;4951357;28;20105;-78
2022/07/27 11:43:30;;;;;;;3.90;1.58;;;;;;;20.64;49.32;100983.28;4958001;28;20046;-78
2022/07/27 11:46:19;;;;;;;1.30;0.95;;;;;;;20.95;45.67;100979.72;4959526;28;20563;-79
2022/07/27 11:48:55;;;;;;;3.47;1.20;;;;;;;21.01;46.37;100973.09;4956248;28;20053;-79
2022/07/27 11:51:42;;;;;;;4.90;1.65;;;;;;;21.09;47.39;100995.00;4935999;28;20043;-79
2022/07/27 11:54:18;;;;;;;2.55;1.02;;;;;;;20.39;44.92;100990.97;4919313;28;20075;-79
2022/07/27 11:56:58;;;;;;;3.25;1.58;;;;;;;20.33;47.64;100981.44;4930963;28;20040;-80
2022/07/27 11:59:32;;;;;;;3.38;1.10;;;;;;;20.61;48.60;100985.31;4923835;28;20054;-79
2022/07/27 12:02:01;;;;;;;3.95;1.20;;;;;;;20.76;46.44;100982.56;4951201;28;20043;-78
2022/07/27 12:04:30;;;;;;;3.05;1.13;;;;;;;20.97;46.83;100976.94;4948378;28;20065;-79
2022/07/27 12:07:09;;;;;;;3.38;1.08;;;;;;;21.17;46.38;100983.81;4915384;28;20047;-79
2022/07/27 12:09:44;;;;;;;6.25;1.33;;;;;;;21.44;46.11;100979.50;4929837;28;20051;-79
2022/07/27 12:12:18;;;;;;;2.33;1.20;;;;;;;21.64;46.64;100965.69;4928281;29;20053;-78
2022/07/27 12:14:49;;;;;;;2.90;1.10;;;;;;;21.54;45.05;100966.38;4943838;28;20066;-79
2022/07/27 12:17:28;;;;;;;2.35;1.58;;;;;;;21.55;46.44;100965.41;4937111;28;20134;-78
2022/07/27 12:20:00;;;;;;;5.05;1.60;;;;;;;21.54;46.68;100972.59;4951592;28;20516;-78
2022/07/27 12:22:31;;;;;;;1.88;1.10;;;;;;;21.45;44.14;100966.94;4951842;28;20085;-78
2022/07/27 12:25:00;;;;;;;3.53;1.10;;;;;;;21.34;46.42;100978.31;4932850;28;20733;-77
2022/07/27 12:27:27;;;;;;;3.30;0.90;;;;;;;21.45;45.93;100969.63;4930271;28;21432;-77
2022/07/27 12:29:58;;;;;;;5.82;1.20;;;;;;;21.47;42.84;100965.00;4928701;29;20066;-78
2022/07/27 12:32:27;;;;;;;4.85;1.73;;;;;;;21.32;45.42;100969.47;4948463;28;20051;-79
2022/07/27 12:34:53;;;;;;;2.45;1.40;;;;;;;21.64;46.15;100975.59;4933683;28;20039;-77
2022/07/27 12:37:21;;;;;;;2.92;1.10;;;;;;;21.76;44.29;100972.13;4930866;28;20035;-78
2022/07/27 12:39:48;;;;;;;3.53;1.52;;;;;;;21.45;44.92;100977.69;4951609;28;20039;-78
2022/07/27 12:42:15;;;;;;;4.78;1.30;;;;;;;21.33;45.03;100969.38;4912836;28;20122;-77
2022/07/27 12:44:44;;;;;;;3.03;1.45;;;;;;;21.37;44.36;100970.09;4917412;28;20587;-78
2022/07/27 12:50:09;;;;;;;2.13;1.20;;;;;;;21.54;47.51;100969.91;4933395;29;20107;-78
2022/07/27 12:52:47;;;;;;;2.20;1.13;;;;;;;21.60;45.11;100972.22;4935079;28;20038;-77
2022/07/27 12:55:14;;;;;;;3.28;1.20;;;;;;;21.59;46.15;100970.47;4947814;28;20166;-78
2022/07/27 12:57:42;;;;;;;2.35;1.30;;;;;;;21.53;44.90;100976.25;4948787;28;20035;-77
2022/07/27 13:00:24;;;;;;;2.70;1.38;;;;;;;21.45;45.29;100975.88;4912912;28;20073;-77
2022/07/27 13:02:59;;;;;;;2.40;0.95;;;;;;;21.25;45.25;100982.38;4914628;29;20043;-79
2022/07/27 13:05:26;;;;;;;1.98;1.20;;;;;;;21.44;45.40;100981.31;4937815;28;20048;-78
2022/07/27 13:07:54;;;;;;;3.15;1.08;;;;;;;21.30;43.04;100974.09;4938477;28;20090;-78
2022/07/27 13:10:20;;;;;;;2.88;1.10;;;;;;;21.38;45.44;100976.31;4920174;28;20102;-77
2022/07/27 13:12:47;;;;;;;5.80;1.70;;;;;;;21.23;45.10;100968.19;4943572;28;20082;-78
2022/07/27 13:15:15;;;;;;;2.70;1.20;;;;;;;21.06;44.86;100971.00;4951959;28;20043;-79
2022/07/27 13:17:42;;;;;;;3.85;1.25;;;;;;;20.79;44.53;100974.38;4933807;28;20075;-79
2022/07/27 13:20:11;;;;;;;2.05;0.90;;;;;;;20.60;45.03;100978.16;4938667;28;20045;-78
2022/07/27 13:22:39;;;;;;;41.53;5.93;;;;;;;20.64;45.66;100985.13;4917348;29;20062;-78
2022/07/27 13:25:07;;;;;;;3.30;1.00;;;;;;;20.80;44.91;100977.91;4952241;28;20044;-79
2022/07/27 13:27:46;;;;;;;1.95;1.35;;;;;;;21.00;45.85;100969.53;4942583;28;20078;-82
2022/07/27 13:30:15;;;;;;;2.25;1.00;;;;;;;21.39;44.78;100973.53;4934550;28;20057;-79
2022/07/27 13:32:43;;;;;;;2.90;1.10;;;;;;;21.23;42.64;100968.19;4940528;29;20039;-78